Terminal Aerodrome Forecast
Issued by NWS Goodland, KS

Home | Current Version | Previous Version | Text Only | Print | Product List | Glossary On
Versions: 1 2 3 4 5 6 7 8 9 10 11 12 13 14
000
FTUS43 KGLD 201242
TAFGLD
TAF
KGLD 201242Z 2012/2112 32018G28KT P6SM VCSH BKN080 WS020/33045KT
     FM201300 32018G28KT P6SM VCSH BKN080
     FM201700 34025G35KT P6SM SKC
     FM202300 35011KT P6SM SKC
     FM210100 VRB05KT P6SM SKC
     FM210500 21008KT P6SM SKC=

USA.gov is the U.S. government's official web portal to all federal, state and local government web resources and services.